<?xml version="1.0" encoding="UTF-8" standalone="no" ?>
<gpx xmlns="http://www.topografix.com/GPX/1/1" xmlns:xsi="http://www.w3.org/2001/XMLSchema-instance" xsi:schemaLocation="http://www.topografix.com/GPX/1/1 http://www.topografix.com/GPX/1/1/gpx.xsd" version="1.1" creator="VisuGPX - https://www.visugpx.com">
  <metadata>
    <name>GR20 en CORSE. Du Nord au Sud. Etape 9</name>
    <desc><![CDATA[LE GR 20 d'Onda à Vizzavona. Le guide LEPERE EDITIONS.]]></desc>
  </metadata>
  <trk>
    <name><![CDATA[4204154-gr20]]></name>
    <extensions>
      <line xmlns="http://www.topografix.com/GPX/gpx_style/0/2">
        <color>0000FF</color>
        <opacity>1</opacity>
        <width>4</width>
      </line>
    </extensions>
    <trkseg>
      <trkpt lat="42.15304" lon="9.07387">
        <ele>1391.4</ele>
        <time>2020-06-02T14:27:43Z</time>
      </trkpt>
      <trkpt lat="42.15294" lon="9.07324">
        <ele>1410.2</ele>
      </trkpt>
      <trkpt lat="42.15272" lon="9.073">
        <ele>1422.1</ele>
      </trkpt>
      <trkpt lat="42.15271" lon="9.07258">
        <ele>1442</ele>
        <time>2020-06-02T14:29:56Z</time>
      </trkpt>
      <trkpt lat="42.15272" lon="9.07242">
        <ele>1449.7</ele>
      </trkpt>
      <trkpt lat="42.15339" lon="9.07191">
        <ele>1470</ele>
      </trkpt>
      <trkpt lat="42.15357" lon="9.07176">
        <ele>1472.4</ele>
        <time>2020-06-02T14:32:48Z</time>
      </trkpt>
      <trkpt lat="42.15309" lon="9.07137">
        <ele>1483.3</ele>
        <time>2020-06-02T14:33:49Z</time>
      </trkpt>
      <trkpt lat="42.1527" lon="9.07149">
        <ele>1486</ele>
        <time>2020-06-02T14:34:36Z</time>
      </trkpt>
      <trkpt lat="42.15225" lon="9.07153">
        <ele>1493.4</ele>
        <time>2020-06-02T14:35:14Z</time>
      </trkpt>
      <trkpt lat="42.15157" lon="9.07069">
        <ele>1525</ele>
        <time>2020-06-02T14:37:19Z</time>
      </trkpt>
      <trkpt lat="42.15105" lon="9.07062">
        <ele>1544.8</ele>
        <time>2020-06-02T14:38:15Z</time>
      </trkpt>
      <trkpt lat="42.15055" lon="9.07053">
        <ele>1564.6</ele>
        <time>2020-06-02T14:39:45Z</time>
      </trkpt>
      <trkpt lat="42.15015" lon="9.0704">
        <ele>1558</ele>
        <time>2020-06-02T14:41:14Z</time>
      </trkpt>
      <trkpt lat="42.14988" lon="9.07035">
        <ele>1590.5</ele>
        <time>2020-06-02T14:41:54Z</time>
      </trkpt>
      <trkpt lat="42.1493" lon="9.07063">
        <ele>1603.5</ele>
        <time>2020-06-02T14:43:46Z</time>
      </trkpt>
      <trkpt lat="42.14883" lon="9.07089">
        <ele>1618.2</ele>
        <time>2020-06-02T14:44:45Z</time>
      </trkpt>
      <trkpt lat="42.14862" lon="9.07104">
        <ele>1632</ele>
        <time>2020-06-02T14:47:10Z</time>
      </trkpt>
      <trkpt lat="42.14744" lon="9.07161">
        <ele>1677.7</ele>
      </trkpt>
      <trkpt lat="42.14713" lon="9.07204">
        <ele>1702.7</ele>
      </trkpt>
      <trkpt lat="42.14679" lon="9.07209">
        <ele>1701</ele>
        <time>2020-06-02T14:49:50Z</time>
      </trkpt>
      <trkpt lat="42.14657" lon="9.0724">
        <ele>1731.2</ele>
        <time>2020-06-02T14:51:09Z</time>
      </trkpt>
      <trkpt lat="42.14606" lon="9.07291">
        <ele>1765.9</ele>
        <time>2020-06-02T14:52:01Z</time>
      </trkpt>
      <trkpt lat="42.14594" lon="9.07303">
        <ele>1774</ele>
        <time>2020-06-02T14:57:00Z</time>
      </trkpt>
      <trkpt lat="42.14286" lon="9.07365">
        <ele>1853.9</ele>
        <time>2020-06-02T14:59:34Z</time>
      </trkpt>
      <trkpt lat="42.14249" lon="9.0739">
        <ele>1863.4</ele>
        <time>2020-06-02T15:00:50Z</time>
      </trkpt>
      <trkpt lat="42.14195" lon="9.07445">
        <ele>1886.8</ele>
        <time>2020-06-02T15:01:48Z</time>
      </trkpt>
      <trkpt lat="42.14131" lon="9.07448">
        <ele>1905.5</ele>
      </trkpt>
      <trkpt lat="42.14066" lon="9.07491">
        <ele>1927.7</ele>
        <time>2020-06-02T15:04:10Z</time>
      </trkpt>
      <trkpt lat="42.14035" lon="9.07504">
        <ele>1937.2</ele>
        <time>2020-06-02T15:05:20Z</time>
      </trkpt>
      <trkpt lat="42.14001" lon="9.07539">
        <ele>1950.8</ele>
        <time>2020-06-02T15:06:13Z</time>
      </trkpt>
      <trkpt lat="42.13925" lon="9.07561">
        <ele>1953</ele>
        <time>2020-06-02T15:08:04Z</time>
      </trkpt>
      <trkpt lat="42.13885" lon="9.07553">
        <ele>1966</ele>
        <time>2020-06-02T15:08:58Z</time>
      </trkpt>
      <trkpt lat="42.13855" lon="9.0757">
        <ele>1983</ele>
        <time>2020-06-02T15:09:42Z</time>
      </trkpt>
      <trkpt lat="42.13835" lon="9.07557">
        <ele>1985</ele>
        <time>2020-06-02T15:10:11Z</time>
      </trkpt>
      <trkpt lat="42.13811" lon="9.07578">
        <ele>2003</ele>
        <time>2020-06-02T15:10:50Z</time>
      </trkpt>
      <trkpt lat="42.13796" lon="9.07555">
        <ele>1997</ele>
        <time>2020-06-02T15:11:20Z</time>
      </trkpt>
      <trkpt lat="42.13694" lon="9.07625">
        <ele>2082.9</ele>
        <time>2020-06-02T15:13:08Z</time>
      </trkpt>
      <trkpt lat="42.13706" lon="9.07666">
        <ele>2071</ele>
        <time>2020-06-02T15:14:17Z</time>
      </trkpt>
      <trkpt lat="42.13687" lon="9.07688">
        <ele>2077</ele>
        <time>2020-06-02T15:14:50Z</time>
      </trkpt>
      <trkpt lat="42.13667" lon="9.07756">
        <ele>2080</ele>
        <time>2020-06-02T15:16:03Z</time>
      </trkpt>
      <trkpt lat="42.13687" lon="9.07827">
        <ele>2056</ele>
        <time>2020-06-02T15:17:18Z</time>
      </trkpt>
      <trkpt lat="42.13669" lon="9.07885">
        <ele>2052</ele>
        <time>2020-06-02T15:18:20Z</time>
      </trkpt>
      <trkpt lat="42.13683" lon="9.08043">
        <ele>2044.8</ele>
      </trkpt>
      <trkpt lat="42.13726" lon="9.08226">
        <ele>2022.6</ele>
      </trkpt>
      <trkpt lat="42.13708" lon="9.08328">
        <ele>2004</ele>
      </trkpt>
      <trkpt lat="42.13717" lon="9.08437">
        <ele>1992</ele>
        <time>2020-06-02T15:27:30Z</time>
      </trkpt>
      <trkpt lat="42.13718" lon="9.08499">
        <ele>1987</ele>
        <time>2020-06-02T15:28:31Z</time>
      </trkpt>
      <trkpt lat="42.13663" lon="9.08529">
        <ele>1948</ele>
        <time>2020-06-02T15:29:51Z</time>
      </trkpt>
      <trkpt lat="42.13626" lon="9.0854">
        <ele>1925</ele>
        <time>2020-06-02T15:30:41Z</time>
      </trkpt>
      <trkpt lat="42.13604" lon="9.0848">
        <ele>1921</ele>
        <time>2020-06-02T15:31:47Z</time>
      </trkpt>
      <trkpt lat="42.13583" lon="9.08439">
        <ele>1914</ele>
        <time>2020-06-02T15:32:37Z</time>
      </trkpt>
      <trkpt lat="42.1355" lon="9.08449">
        <ele>1894</ele>
        <time>2020-06-02T15:33:22Z</time>
      </trkpt>
      <trkpt lat="42.1354" lon="9.08415">
        <ele>1893</ele>
        <time>2020-06-02T15:33:58Z</time>
      </trkpt>
      <trkpt lat="42.1351" lon="9.08419">
        <ele>1876</ele>
        <time>2020-06-02T15:34:38Z</time>
      </trkpt>
      <trkpt lat="42.135" lon="9.08465">
        <ele>1864</ele>
        <time>2020-06-02T15:35:26Z</time>
      </trkpt>
      <trkpt lat="42.13438" lon="9.08456">
        <ele>1831</ele>
        <time>2020-06-02T15:36:49Z</time>
      </trkpt>
      <trkpt lat="42.134" lon="9.08505">
        <ele>1803</ele>
        <time>2020-06-02T15:37:59Z</time>
      </trkpt>
      <trkpt lat="42.13386" lon="9.0854">
        <ele>1790</ele>
        <time>2020-06-02T15:38:38Z</time>
      </trkpt>
      <trkpt lat="42.13349" lon="9.0852">
        <ele>1772</ele>
        <time>2020-06-02T15:39:32Z</time>
      </trkpt>
      <trkpt lat="42.13323" lon="9.08472">
        <ele>1764.6</ele>
        <time>2020-06-02T15:40:43Z</time>
      </trkpt>
      <trkpt lat="42.13311" lon="9.0845">
        <ele>1756.5</ele>
      </trkpt>
      <trkpt lat="42.13298" lon="9.08467">
        <ele>1753</ele>
        <time>2020-06-02T15:41:24Z</time>
      </trkpt>
      <trkpt lat="42.13271" lon="9.08492">
        <ele>1738</ele>
        <time>2020-06-02T15:42:08Z</time>
      </trkpt>
      <trkpt lat="42.1326" lon="9.08512">
        <ele>1729</ele>
        <time>2020-06-02T15:42:32Z</time>
      </trkpt>
      <trkpt lat="42.13235" lon="9.08503">
        <ele>1720</ele>
        <time>2020-06-02T15:43:07Z</time>
      </trkpt>
      <trkpt lat="42.13209" lon="9.0849">
        <ele>1713</ele>
        <time>2020-06-02T15:43:44Z</time>
      </trkpt>
      <trkpt lat="42.13185" lon="9.08467">
        <ele>1709</ele>
        <time>2020-06-02T15:44:23Z</time>
      </trkpt>
      <trkpt lat="42.1315" lon="9.0848">
        <ele>1693</ele>
        <time>2020-06-02T15:45:12Z</time>
      </trkpt>
      <trkpt lat="42.13139" lon="9.08495">
        <ele>1685</ele>
        <time>2020-06-02T15:45:32Z</time>
      </trkpt>
      <trkpt lat="42.13152" lon="9.08572">
        <ele>1670</ele>
        <time>2020-06-02T15:46:51Z</time>
      </trkpt>
      <trkpt lat="42.13134" lon="9.08593">
        <ele>1660</ele>
        <time>2020-06-02T15:47:22Z</time>
      </trkpt>
      <trkpt lat="42.13087" lon="9.08593">
        <ele>1641</ele>
        <time>2020-06-02T15:48:25Z</time>
      </trkpt>
      <trkpt lat="42.13063" lon="9.08576">
        <ele>1636</ele>
        <time>2020-06-02T15:49:01Z</time>
      </trkpt>
      <trkpt lat="42.12948" lon="9.08625">
        <ele>1606</ele>
        <time>2020-06-02T15:51:42Z</time>
      </trkpt>
      <trkpt lat="42.12938" lon="9.08648">
        <ele>1609.7</ele>
      </trkpt>
      <trkpt lat="42.12939" lon="9.08673">
        <ele>1598</ele>
        <time>2020-06-02T15:52:31Z</time>
      </trkpt>
      <trkpt lat="42.12934" lon="9.08706">
        <ele>1592.3</ele>
      </trkpt>
      <trkpt lat="42.12864" lon="9.08769">
        <ele>1582</ele>
        <time>2020-06-02T15:54:49Z</time>
      </trkpt>
      <trkpt lat="42.12818" lon="9.08767">
        <ele>1566</ele>
        <time>2020-06-02T15:55:51Z</time>
      </trkpt>
      <trkpt lat="42.12767" lon="9.0878">
        <ele>1557</ele>
        <time>2020-06-02T15:57:00Z</time>
      </trkpt>
      <trkpt lat="42.12742" lon="9.08774">
        <ele>1543.3</ele>
        <time>2020-06-02T15:57:47Z</time>
      </trkpt>
      <trkpt lat="42.12723" lon="9.08769">
        <ele>1537.9</ele>
      </trkpt>
      <trkpt lat="42.12619" lon="9.08758">
        <ele>1512</ele>
        <time>2020-06-02T16:00:23Z</time>
      </trkpt>
      <trkpt lat="42.12609" lon="9.08795">
        <ele>1515</ele>
        <time>2020-06-02T16:01:02Z</time>
      </trkpt>
      <trkpt lat="42.12555" lon="9.08816">
        <ele>1500</ele>
        <time>2020-06-02T16:02:17Z</time>
      </trkpt>
      <trkpt lat="42.12517" lon="9.08911">
        <ele>1491</ele>
        <time>2020-06-02T16:04:04Z</time>
      </trkpt>
      <trkpt lat="42.12507" lon="9.0893">
        <ele>1487</ele>
        <time>2020-06-02T16:04:27Z</time>
      </trkpt>
      <trkpt lat="42.12402" lon="9.08982">
        <ele>1455</ele>
        <time>2020-06-02T16:06:56Z</time>
      </trkpt>
      <trkpt lat="42.12371" lon="9.09001">
        <ele>1448</ele>
        <time>2020-06-02T16:07:42Z</time>
      </trkpt>
      <trkpt lat="42.12355" lon="9.09018">
        <ele>1445</ele>
        <time>2020-06-02T16:08:09Z</time>
      </trkpt>
      <trkpt lat="42.12323" lon="9.09035">
        <ele>1438</ele>
        <time>2020-06-02T16:08:55Z</time>
      </trkpt>
      <trkpt lat="42.12253" lon="9.09063">
        <ele>1428</ele>
        <time>2020-06-02T16:10:32Z</time>
      </trkpt>
      <trkpt lat="42.12223" lon="9.09115">
        <ele>1425</ele>
        <time>2020-06-02T16:11:37Z</time>
      </trkpt>
      <trkpt lat="42.12211" lon="9.09143">
        <ele>1422</ele>
        <time>2020-06-02T16:12:09Z</time>
      </trkpt>
      <trkpt lat="42.12143" lon="9.09183">
        <ele>1422</ele>
        <time>2020-06-02T16:13:48Z</time>
      </trkpt>
      <trkpt lat="42.1212" lon="9.09284">
        <ele>1396.8</ele>
        <time>2020-06-02T16:15:24Z</time>
      </trkpt>
      <trkpt lat="42.12103" lon="9.09345">
        <ele>1387.2</ele>
      </trkpt>
      <trkpt lat="42.1211" lon="9.09391">
        <ele>1380</ele>
        <time>2020-06-02T16:17:24Z</time>
      </trkpt>
      <trkpt lat="42.12108" lon="9.09497">
        <ele>1365</ele>
        <time>2020-06-02T16:19:09Z</time>
      </trkpt>
      <trkpt lat="42.12071" lon="9.09527">
        <ele>1358</ele>
        <time>2020-06-02T16:20:06Z</time>
      </trkpt>
      <trkpt lat="42.12028" lon="9.09606">
        <ele>1347</ele>
        <time>2020-06-02T16:21:43Z</time>
      </trkpt>
      <trkpt lat="42.12011" lon="9.09651">
        <ele>1342</ele>
        <time>2020-06-02T16:22:33Z</time>
      </trkpt>
      <trkpt lat="42.11989" lon="9.09731">
        <ele>1334</ele>
        <time>2020-06-02T16:23:58Z</time>
      </trkpt>
      <trkpt lat="42.11973" lon="9.09758">
        <ele>1331</ele>
        <time>2020-06-02T16:24:32Z</time>
      </trkpt>
      <trkpt lat="42.11939" lon="9.09894">
        <ele>1300</ele>
        <time>2020-06-02T16:26:54Z</time>
      </trkpt>
      <trkpt lat="42.11901" lon="9.10007">
        <ele>1284</ele>
        <time>2020-06-02T16:29:02Z</time>
      </trkpt>
      <trkpt lat="42.11893" lon="9.10076">
        <ele>1284</ele>
        <time>2020-06-02T16:30:11Z</time>
      </trkpt>
      <trkpt lat="42.11909" lon="9.10123">
        <ele>1279</ele>
        <time>2020-06-02T16:31:02Z</time>
      </trkpt>
      <trkpt lat="42.11939" lon="9.10164">
        <ele>1274</ele>
        <time>2020-06-02T16:31:59Z</time>
      </trkpt>
      <trkpt lat="42.11952" lon="9.10214">
        <ele>1254.1</ele>
        <time>2020-06-02T16:32:58Z</time>
      </trkpt>
      <trkpt lat="42.11944" lon="9.10265">
        <ele>1273</ele>
        <time>2020-06-02T16:34:03Z</time>
      </trkpt>
      <trkpt lat="42.11934" lon="9.10308">
        <ele>1274</ele>
        <time>2020-06-02T16:34:47Z</time>
      </trkpt>
      <trkpt lat="42.11941" lon="9.10415">
        <ele>1266</ele>
        <time>2020-06-02T16:36:33Z</time>
      </trkpt>
      <trkpt lat="42.11942" lon="9.10497">
        <ele>1252</ele>
        <time>2020-06-02T16:37:55Z</time>
      </trkpt>
      <trkpt lat="42.11904" lon="9.10617">
        <ele>1238</ele>
        <time>2020-06-02T16:40:04Z</time>
      </trkpt>
      <trkpt lat="42.11906" lon="9.10657">
        <ele>1226</ele>
        <time>2020-06-02T16:40:43Z</time>
      </trkpt>
      <trkpt lat="42.1185" lon="9.10727">
        <ele>1206.6</ele>
        <time>2020-06-02T16:42:38Z</time>
      </trkpt>
      <trkpt lat="42.11813" lon="9.10769">
        <ele>1196.1</ele>
        <time>2020-06-02T16:43:19Z</time>
      </trkpt>
      <trkpt lat="42.11789" lon="9.10817">
        <ele>1176.5</ele>
        <time>2020-06-02T16:44:18Z</time>
      </trkpt>
      <trkpt lat="42.11772" lon="9.10891">
        <ele>1141.7</ele>
        <time>2020-06-02T16:45:53Z</time>
      </trkpt>
      <trkpt lat="42.11627" lon="9.1108">
        <ele>1119</ele>
        <time>2020-06-02T16:50:24Z</time>
      </trkpt>
      <trkpt lat="42.11611" lon="9.11135">
        <ele>1092.8</ele>
      </trkpt>
      <trkpt lat="42.11607" lon="9.11211">
        <ele>1112</ele>
        <time>2020-06-02T16:52:36Z</time>
      </trkpt>
      <trkpt lat="42.11658" lon="9.11255">
        <ele>1085.9</ele>
        <time>2020-06-02T16:54:20Z</time>
      </trkpt>
      <trkpt lat="42.11678" lon="9.11305">
        <ele>1101</ele>
        <time>2020-06-02T16:55:30Z</time>
      </trkpt>
      <trkpt lat="42.11723" lon="9.11428">
        <ele>1101</ele>
        <time>2020-06-02T16:58:10Z</time>
      </trkpt>
      <trkpt lat="42.11726" lon="9.11518">
        <ele>1091</ele>
        <time>2020-06-02T16:59:39Z</time>
      </trkpt>
      <trkpt lat="42.11737" lon="9.11604">
        <ele>1085</ele>
        <time>2020-06-02T17:01:05Z</time>
      </trkpt>
      <trkpt lat="42.11737" lon="9.11687">
        <ele>1083</ele>
        <time>2020-06-02T17:02:28Z</time>
      </trkpt>
      <trkpt lat="42.1175" lon="9.11814">
        <ele>1076</ele>
        <time>2020-06-02T17:04:35Z</time>
      </trkpt>
      <trkpt lat="42.1175" lon="9.11889">
        <ele>1074</ele>
        <time>2020-06-02T17:05:49Z</time>
      </trkpt>
      <trkpt lat="42.11768" lon="9.11955">
        <ele>1048.3</ele>
        <time>2020-06-02T17:08:14Z</time>
      </trkpt>
      <trkpt lat="42.11813" lon="9.12041">
        <ele>1043.4</ele>
        <time>2020-06-02T17:10:20Z</time>
      </trkpt>
      <trkpt lat="42.11891" lon="9.1211">
        <ele>1036.3</ele>
      </trkpt>
      <trkpt lat="42.11944" lon="9.12273">
        <ele>1026.4</ele>
      </trkpt>
      <trkpt lat="42.12017" lon="9.1235">
        <ele>1018</ele>
        <time>2020-06-02T17:14:47Z</time>
      </trkpt>
      <trkpt lat="42.12065" lon="9.12423">
        <ele>1025</ele>
        <time>2020-06-02T17:17:40Z</time>
      </trkpt>
      <trkpt lat="42.12088" lon="9.12537">
        <ele>1003.5</ele>
        <time>2020-06-02T17:20:02Z</time>
      </trkpt>
      <trkpt lat="42.12058" lon="9.12577">
        <ele>996.6</ele>
      </trkpt>
      <trkpt lat="42.12081" lon="9.12688">
        <ele>988.2</ele>
        <time>2020-06-02T17:22:08Z</time>
      </trkpt>
      <trkpt lat="42.12112" lon="9.12759">
        <ele>982.9</ele>
        <time>2020-06-02T17:23:31Z</time>
      </trkpt>
      <trkpt lat="42.12176" lon="9.12853">
        <ele>982</ele>
        <time>2020-06-02T17:25:44Z</time>
      </trkpt>
      <trkpt lat="42.12261" lon="9.12878">
        <ele>977</ele>
        <time>2020-06-02T17:27:40Z</time>
      </trkpt>
      <trkpt lat="42.12321" lon="9.1288">
        <ele>976</ele>
        <time>2020-06-02T17:29:00Z</time>
      </trkpt>
      <trkpt lat="42.12399" lon="9.12803">
        <ele>984</ele>
        <time>2020-06-02T17:31:09Z</time>
      </trkpt>
      <trkpt lat="42.12447" lon="9.12846">
        <ele>975</ele>
        <time>2020-06-02T17:32:26Z</time>
      </trkpt>
      <trkpt lat="42.12652" lon="9.1293">
        <ele>955</ele>
        <time>2020-06-02T17:37:12Z</time>
      </trkpt>
      <trkpt lat="42.12624" lon="9.12975">
        <ele>957</ele>
        <time>2020-06-02T17:38:10Z</time>
      </trkpt>
      <trkpt lat="42.12644" lon="9.13033">
        <ele>953</ele>
        <time>2020-06-02T17:39:14Z</time>
      </trkpt>
      <trkpt lat="42.126" lon="9.13054">
        <ele>961</ele>
        <time>2020-06-02T17:40:16Z</time>
      </trkpt>
      <trkpt lat="42.12568" lon="9.13108">
        <ele>967</ele>
        <time>2020-06-02T17:41:24Z</time>
      </trkpt>
      <trkpt lat="42.12668" lon="9.13149">
        <ele>953</ele>
        <time>2020-06-02T17:43:44Z</time>
      </trkpt>
      <trkpt lat="42.12675" lon="9.13215">
        <ele>955</ele>
        <time>2020-06-02T17:44:50Z</time>
      </trkpt>
      <trkpt lat="42.12694" lon="9.13297">
        <ele>953</ele>
        <time>2020-06-02T17:46:15Z</time>
        <extensions>
          <visugpx:TrkExtension xmlns:visugpx="https://www.visugpx.com/editgpx/">
            <visugpx:node>1</visugpx:node>
            </visugpx:TrkExtension>
        </extensions>
      </trkpt>
    </trkseg>
  </trk>
</gpx>